sensor_id;sensor_type;location;lat;lon;timestamp;temperature;humidity
33837;DHT22;20140;49.356;8.812;2023-03-01T00:01:00;0.10;99.90
33837;DHT22;20140;49.356;8.812;2023-03-01T00:03:25;0.00;99.90
33837;DHT22;20140;49.356;8.812;2023-03-01T00:05:51;0.00;99.90
33837;DHT22;20140;49.356;8.812;2023-03-01T00:08:16;0.00;99.90
33837;DHT22;20140;49.356;8.812;2023-03-01T00:10:42;0.10;99.90
33837;DHT22;20140;49.356;8.812;2023-03-01T00:13:07;0.10;99.90
33837;DHT22;20140;49.356;8.812;2023-03-01T00:15:33;0.10;99.90
33837;DHT22;20140;49.356;8.812;2023-03-01T00:18:00;0.10;99.90
33837;DHT22;20140;49.356;8.812;2023-03-01T00:20:27;0.10;99.90
33837;DHT22;20140;49.356;8.812;2023-03-01T00:22:53;0.00;99.90
33837;DHT22;20140;49.356;8.812;2023-03-01T00:25:18;0.10;99.90
33837;DHT22;20140;49.356;8.812;2023-03-01T00:27:44;0.10;99.90
33837;DHT22;20140;49.356;8.812;2023-03-01T00:30:10;0.00;99.90
33837;DHT22;20140;49.356;8.812;2023-03-01T00:32:35;0.00;99.90
33837;DHT22;20140;49.356;8.812;2023-03-01T00:35:01;0.00;99.90
33837;DHT22;20140;49.356;8.812;2023-03-01T00:37:26;0.00;99.90
33837;DHT22;20140;49.356;8.812;2023-03-01T00:39:52;0.00;99.90
33837;DHT22;20140;49.356;8.812;2023-03-01T00:42:17;0.00;99.90
33837;DHT22;20140;49.356;8.812;2023-03-01T00:44:43;0.10;99.90
33837;DHT22;20140;49.356;8.812;2023-03-01T00:47:08;0.00;99.90
33837;DHT22;20140;49.356;8.812;2023-03-01T00:49:34;0.00;99.90
33837;DHT22;20140;49.356;8.812;2023-03-01T00:52:00;0.00;99.90
33837;DHT22;20140;49.356;8.812;2023-03-01T00:54:25;-0.10;99.90
33837;DHT22;20140;49.356;8.812;2023-03-01T00:56:51;-0.10;99.90
33837;DHT22;20140;49.356;8.812;2023-03-01T00:59:17;0.00;99.90
33837;DHT22;20140;49.356;8.812;2023-03-01T01:01:42;0.00;99.90
33837;DHT22;20140;49.356;8.812;2023-03-01T01:04:10;0.00;99.90
33837;DHT22;20140;49.356;8.812;2023-03-01T01:06:41;0.00;99.90
33837;DHT22;20140;49.356;8.812;2023-03-01T01:09:10;0.00;99.90
33837;DHT22;20140;49.356;8.812;2023-03-01T01:11:43;0.00;99.90
33837;DHT22;20140;49.356;8.812;2023-03-01T01:14:09;-0.10;99.90
33837;DHT22;20140;49.356;8.812;2023-03-01T01:16:35;0.00;99.90
33837;DHT22;20140;49.356;8.812;2023-03-01T01:19:00;0.00;99.90
33837;DHT22;20140;49.356;8.812;2023-03-01T01:21:26;-0.10;99.90
33837;DHT22;20140;49.356;8.812;2023-03-01T01:23:53;-0.10;99.90
33837;DHT22;20140;49.356;8.812;2023-03-01T01:26:30;-0.10;99.90
33837;DHT22;20140;49.356;8.812;2023-03-01T01:28:56;-0.10;99.90
33837;DHT22;20140;49.356;8.812;2023-03-01T01:31:23;0.00;99.90
33837;DHT22;20140;49.356;8.812;2023-03-01T01:33:49;0.00;99.90
33837;DHT22;20140;49.356;8.812;2023-03-01T01:36:16;-0.10;99.90
33837;DHT22;20140;49.356;8.812;2023-03-01T01:38:41;-0.10;99.90
33837;DHT22;20140;49.356;8.812;2023-03-01T01:41:08;-0.10;99.90
33837;DHT22;20140;49.356;8.812;2023-03-01T01:43:42;-0.20;99.90
33837;DHT22;20140;49.356;8.812;2023-03-01T01:46:30;-0.20;99.90
33837;DHT22;20140;49.356;8.812;2023-03-01T01:49:10;-0.20;99.90
33837;DHT22;20140;49.356;8.812;2023-03-01T01:51:42;-0.20;99.90
33837;DHT22;20140;49.356;8.812;2023-03-01T01:54:14;-0.20;99.90
33837;DHT22;20140;49.356;8.812;2023-03-01T01:56:43;-0.20;99.90
33837;DHT22;20140;49.356;8.812;2023-03-01T01:59:09;-0.30;99.90
33837;DHT22;20140;49.356;8.812;2023-03-01T02:01:36;-0.20;99.90
33837;DHT22;20140;49.356;8.812;2023-03-01T02:04:02;-0.30;99.90
33837;DHT22;20140;49.356;8.812;2023-03-01T02:06:32;-0.20;99.90
33837;DHT22;20140;49.356;8.812;2023-03-01T02:09:02;-0.20;99.90
33837;DHT22;20140;49.356;8.812;2023-03-01T02:11:30;-0.20;99.90
33837;DHT22;20140;49.356;8.812;2023-03-01T02:13:56;-0.20;99.90
33837;DHT22;20140;49.356;8.812;2023-03-01T02:16:22;-0.30;99.90
33837;DHT22;20140;49.356;8.812;2023-03-01T02:18:47;-0.40;99.90
33837;DHT22;20140;49.356;8.812;2023-03-01T02:26:50;-0.80;99.90
33837;DHT22;20140;49.356;8.812;2023-03-01T02:29:16;-0.90;99.90
33837;DHT22;20140;49.356;8.812;2023-03-01T02:31:42;-0.90;99.90
33837;DHT22;20140;49.356;8.812;2023-03-01T02:34:11;-0.90;99.90
33837;DHT22;20140;49.356;8.812;2023-03-01T02:36:42;-0.80;99.90
33837;DHT22;20140;49.356;8.812;2023-03-01T02:39:18;-0.80;99.90
33837;DHT22;20140;49.356;8.812;2023-03-01T02:41:53;-0.70;99.90
33837;DHT22;20140;49.356;8.812;2023-03-01T02:44:20;-0.70;99.90
33837;DHT22;20140;49.356;8.812;2023-03-01T02:46:49;-0.60;99.90
33837;DHT22;20140;49.356;8.812;2023-03-01T02:49:29;-0.60;99.90
33837;DHT22;20140;49.356;8.812;2023-03-01T02:55:16;-0.60;99.90
33837;DHT22;20140;49.356;8.812;2023-03-01T02:57:44;-0.60;99.90
33837;DHT22;20140;49.356;8.812;2023-03-01T03:00:17;-0.50;99.90
33837;DHT22;20140;49.356;8.812;2023-03-01T03:02:49;-0.60;99.90
33837;DHT22;20140;49.356;8.812;2023-03-01T03:05:19;-0.60;99.90
33837;DHT22;20140;49.356;8.812;2023-03-01T03:07:47;-0.60;99.90
33837;DHT22;20140;49.356;8.812;2023-03-01T03:10:28;-0.70;99.90
33837;DHT22;20140;49.356;8.812;2023-03-01T03:13:02;-0.90;99.90
33837;DHT22;20140;49.356;8.812;2023-03-01T03:15:28;-1.00;99.90
33837;DHT22;20140;49.356;8.812;2023-03-01T03:17:55;-1.10;99.90
33837;DHT22;20140;49.356;8.812;2023-03-01T03:20:24;-1.10;99.90
33837;DHT22;20140;49.356;8.812;2023-03-01T03:22:52;-1.10;99.90
33837;DHT22;20140;49.356;8.812;2023-03-01T03:25:19;-1.10;99.90
33837;DHT22;20140;49.356;8.812;2023-03-01T03:27:46;-1.00;99.90
33837;DHT22;20140;49.356;8.812;2023-03-01T03:30:15;-1.10;99.90
33837;DHT22;20140;49.356;8.812;2023-03-01T03:32:43;-1.00;99.90
33837;DHT22;20140;49.356;8.812;2023-03-01T03:35:19;-1.00;99.90
33837;DHT22;20140;49.356;8.812;2023-03-01T03:37:46;-0.90;99.90
33837;DHT22;20140;49.356;8.812;2023-03-01T03:40:37;-1.00;99.90
33837;DHT22;20140;49.356;8.812;2023-03-01T03:43:08;-1.00;99.90
33837;DHT22;20140;49.356;8.812;2023-03-01T03:45:34;-1.00;99.90
33837;DHT22;20140;49.356;8.812;2023-03-01T03:48:01;-1.00;99.90
33837;DHT22;20140;49.356;8.812;2023-03-01T03:50:27;-1.10;99.90
33837;DHT22;20140;49.356;8.812;2023-03-01T03:52:52;-1.20;99.90
33837;DHT22;20140;49.356;8.812;2023-03-01T03:55:18;-1.20;99.90
33837;DHT22;20140;49.356;8.812;2023-03-01T03:57:45;-1.20;99.90
33837;DHT22;20140;49.356;8.812;2023-03-01T04:00:18;-1.20;99.90
33837;DHT22;20140;49.356;8.812;2023-03-01T04:02:44;-1.10;99.90
33837;DHT22;20140;49.356;8.812;2023-03-01T04:05:12;-1.00;99.90
33837;DHT22;20140;49.356;8.812;2023-03-01T04:07:38;-0.90;99.90
33837;DHT22;20140;49.356;8.812;2023-03-01T04:10:05;-0.90;99.90
33837;DHT22;20140;49.356;8.812;2023-03-01T04:12:33;-0.90;99.90
33837;DHT22;20140;49.356;8.812;2023-03-01T04:15:00;-0.90;99.90
33837;DHT22;20140;49.356;8.812;2023-03-01T04:17:25;-0.90;99.90
33837;DHT22;20140;49.356;8.812;2023-03-01T04:19:51;-0.90;99.90
33837;DHT22;20140;49.356;8.812;2023-03-01T04:22:17;-1.00;99.90
33837;DHT22;20140;49.356;8.812;2023-03-01T04:24:43;-1.10;99.90
33837;DHT22;20140;49.356;8.812;2023-03-01T04:27:09;-1.10;99.90
33837;DHT22;20140;49.356;8.812;2023-03-01T04:29:35;-1.10;99.90
33837;DHT22;20140;49.356;8.812;2023-03-01T04:32:00;-1.30;99.90
33837;DHT22;20140;49.356;8.812;2023-03-01T04:34:26;-1.30;99.90
33837;DHT22;20140;49.356;8.812;2023-03-01T04:36:52;-1.50;99.90
33837;DHT22;20140;49.356;8.812;2023-03-01T04:39:18;-1.40;99.90
33837;DHT22;20140;49.356;8.812;2023-03-01T04:41:43;-1.40;99.90
33837;DHT22;20140;49.356;8.812;2023-03-01T04:44:09;-1.40;99.90
33837;DHT22;20140;49.356;8.812;2023-03-01T04:46:35;-1.30;99.90
33837;DHT22;20140;49.356;8.812;2023-03-01T04:49:01;-1.20;99.90
33837;DHT22;20140;49.356;8.812;2023-03-01T04:51:26;-1.20;99.90
33837;DHT22;20140;49.356;8.812;2023-03-01T04:53:52;-1.30;99.90
33837;DHT22;20140;49.356;8.812;2023-03-01T04:56:17;-1.40;99.90
33837;DHT22;20140;49.356;8.812;2023-03-01T04:58:43;-1.50;99.90
33837;DHT22;20140;49.356;8.812;2023-03-01T05:01:18;-1.60;99.90
33837;DHT22;20140;49.356;8.812;2023-03-01T05:03:46;-1.70;99.90
33837;DHT22;20140;49.356;8.812;2023-03-01T05:06:13;-1.80;99.90
33837;DHT22;20140;49.356;8.812;2023-03-01T05:08:39;-1.90;99.90
33837;DHT22;20140;49.356;8.812;2023-03-01T05:11:05;-1.80;99.90
33837;DHT22;20140;49.356;8.812;2023-03-01T05:13:34;-1.70;99.90
33837;DHT22;20140;49.356;8.812;2023-03-01T05:16:01;-1.60;99.90
33837;DHT22;20140;49.356;8.812;2023-03-01T05:18:28;-1.50;99.90
33837;DHT22;20140;49.356;8.812;2023-03-01T05:20:54;-1.30;99.90
33837;DHT22;20140;49.356;8.812;2023-03-01T05:23:24;-1.30;99.90
33837;DHT22;20140;49.356;8.812;2023-03-01T05:25:50;-1.40;99.90
33837;DHT22;20140;49.356;8.812;2023-03-01T05:28:17;-1.40;99.90
33837;DHT22;20140;49.356;8.812;2023-03-01T05:30:43;-1.60;99.90
33837;DHT22;20140;49.356;8.812;2023-03-01T05:33:09;-1.70;99.90
33837;DHT22;20140;49.356;8.812;2023-03-01T05:35:39;-1.80;99.90
33837;DHT22;20140;49.356;8.812;2023-03-01T05:38:05;-1.80;99.90
33837;DHT22;20140;49.356;8.812;2023-03-01T05:40:33;-1.80;99.90
33837;DHT22;20140;49.356;8.812;2023-03-01T05:42:58;-1.60;99.90
33837;DHT22;20140;49.356;8.812;2023-03-01T05:45:25;-1.70;99.90
33837;DHT22;20140;49.356;8.812;2023-03-01T05:47:51;-1.70;99.90
33837;DHT22;20140;49.356;8.812;2023-03-01T05:50:22;-1.80;99.90
33837;DHT22;20140;49.356;8.812;2023-03-01T05:52:50;-1.80;99.90
33837;DHT22;20140;49.356;8.812;2023-03-01T05:55:20;-1.80;99.90
33837;DHT22;20140;49.356;8.812;2023-03-01T05:57:47;-1.70;99.90
33837;DHT22;20140;49.356;8.812;2023-03-01T06:00:14;-1.60;99.90
33837;DHT22;20140;49.356;8.812;2023-03-01T06:02:40;-1.70;99.90
33837;DHT22;20140;49.356;8.812;2023-03-01T06:05:08;-1.60;99.90
33837;DHT22;20140;49.356;8.812;2023-03-01T06:07:34;-1.60;99.90
33837;DHT22;20140;49.356;8.812;2023-03-01T06:10:00;-1.70;99.90
33837;DHT22;20140;49.356;8.812;2023-03-01T06:12:25;-1.70;99.90
33837;DHT22;20140;49.356;8.812;2023-03-01T06:14:51;-1.60;99.90
33837;DHT22;20140;49.356;8.812;2023-03-01T06:17:16;-1.60;99.90
33837;DHT22;20140;49.356;8.812;2023-03-01T06:19:42;-1.50;99.90
33837;DHT22;20140;49.356;8.812;2023-03-01T06:22:08;-1.40;99.90
33837;DHT22;20140;49.356;8.812;2023-03-01T06:24:34;-1.40;99.90
33837;DHT22;20140;49.356;8.812;2023-03-01T06:26:59;-1.40;99.90
33837;DHT22;20140;49.356;8.812;2023-03-01T06:29:25;-1.40;99.90
33837;DHT22;20140;49.356;8.812;2023-03-01T06:31:50;-1.40;99.90
33837;DHT22;20140;49.356;8.812;2023-03-01T06:34:16;-1.40;99.90
33837;DHT22;20140;49.356;8.812;2023-03-01T06:36:41;-1.40;99.90
33837;DHT22;20140;49.356;8.812;2023-03-01T06:39:07;-1.40;99.90
33837;DHT22;20140;49.356;8.812;2023-03-01T06:41:33;-1.30;99.90
33837;DHT22;20140;49.356;8.812;2023-03-01T06:43:59;-1.10;99.90
33837;DHT22;20140;49.356;8.812;2023-03-01T06:46:24;-1.20;99.90
33837;DHT22;20140;49.356;8.812;2023-03-01T06:48:50;-1.30;99.90
33837;DHT22;20140;49.356;8.812;2023-03-01T06:51:15;-1.30;99.90
33837;DHT22;20140;49.356;8.812;2023-03-01T06:53:41;-1.20;99.90
33837;DHT22;20140;49.356;8.812;2023-03-01T06:56:06;-1.10;99.90
33837;DHT22;20140;49.356;8.812;2023-03-01T06:58:32;-1.00;99.90
33837;DHT22;20140;49.356;8.812;2023-03-01T07:00:57;-1.00;99.90
33837;DHT22;20140;49.356;8.812;2023-03-01T07:03:23;-1.10;99.90
33837;DHT22;20140;49.356;8.812;2023-03-01T07:05:49;-1.10;99.90
33837;DHT22;20140;49.356;8.812;2023-03-01T07:08:16;-1.00;99.90
33837;DHT22;20140;49.356;8.812;2023-03-01T07:10:42;-1.10;99.90
33837;DHT22;20140;49.356;8.812;2023-03-01T07:13:08;-1.00;99.90
33837;DHT22;20140;49.356;8.812;2023-03-01T07:15:33;-0.90;99.90
33837;DHT22;20140;49.356;8.812;2023-03-01T07:17:59;-0.90;99.90
33837;DHT22;20140;49.356;8.812;2023-03-01T07:20:25;-0.80;99.90
33837;DHT22;20140;49.356;8.812;2023-03-01T07:22:52;-0.80;99.90
33837;DHT22;20140;49.356;8.812;2023-03-01T07:25:17;-0.70;99.90
33837;DHT22;20140;49.356;8.812;2023-03-01T07:27:43;-0.60;99.90
33837;DHT22;20140;49.356;8.812;2023-03-01T07:30:09;-0.60;99.90
33837;DHT22;20140;49.356;8.812;2023-03-01T07:32:35;-0.50;99.90
33837;DHT22;20140;49.356;8.812;2023-03-01T07:35:01;-0.50;99.90
33837;DHT22;20140;49.356;8.812;2023-03-01T07:37:26;-0.40;99.90
33837;DHT22;20140;49.356;8.812;2023-03-01T07:39:52;-0.40;99.90
33837;DHT22;20140;49.356;8.812;2023-03-01T07:42:17;-0.30;99.90
33837;DHT22;20140;49.356;8.812;2023-03-01T07:44:43;-0.20;99.90
33837;DHT22;20140;49.356;8.812;2023-03-01T07:47:08;0.00;99.90
33837;DHT22;20140;49.356;8.812;2023-03-01T07:49:34;0.10;99.90
33837;DHT22;20140;49.356;8.812;2023-03-01T07:52:00;0.10;99.90
33837;DHT22;20140;49.356;8.812;2023-03-01T07:54:26;0.10;99.90
33837;DHT22;20140;49.356;8.812;2023-03-01T07:56:51;0.20;99.90
33837;DHT22;20140;49.356;8.812;2023-03-01T07:59:17;0.20;99.90
33837;DHT22;20140;49.356;8.812;2023-03-01T08:01:43;0.20;99.90
33837;DHT22;20140;49.356;8.812;2023-03-01T08:04:08;0.20;99.90
33837;DHT22;20140;49.356;8.812;2023-03-01T08:06:35;0.30;99.90
33837;DHT22;20140;49.356;8.812;2023-03-01T08:09:01;0.40;99.90
33837;DHT22;20140;49.356;8.812;2023-03-01T08:11:26;0.40;99.90
33837;DHT22;20140;49.356;8.812;2023-03-01T08:13:54;0.40;99.90
33837;DHT22;20140;49.356;8.812;2023-03-01T08:16:19;0.50;99.90
33837;DHT22;20140;49.356;8.812;2023-03-01T08:18:45;0.60;99.90
33837;DHT22;20140;49.356;8.812;2023-03-01T08:21:14;0.80;99.90
33837;DHT22;20140;49.356;8.812;2023-03-01T08:23:40;0.90;99.90
33837;DHT22;20140;49.356;8.812;2023-03-01T08:26:09;0.80;99.90
33837;DHT22;20140;49.356;8.812;2023-03-01T08:28:35;0.90;99.90
33837;DHT22;20140;49.356;8.812;2023-03-01T08:31:01;0.90;99.90
33837;DHT22;20140;49.356;8.812;2023-03-01T08:33:27;0.90;99.90
33837;DHT22;20140;49.356;8.812;2023-03-01T08:36:05;1.10;99.90
33837;DHT22;20140;49.356;8.812;2023-03-01T08:38:33;1.20;99.90
33837;DHT22;20140;49.356;8.812;2023-03-01T08:41:02;1.30;99.90
33837;DHT22;20140;49.356;8.812;2023-03-01T08:43:28;1.30;99.90
33837;DHT22;20140;49.356;8.812;2023-03-01T08:45:54;1.40;99.90
33837;DHT22;20140;49.356;8.812;2023-03-01T08:48:20;1.40;99.90
33837;DHT22;20140;49.356;8.812;2023-03-01T08:50:45;1.50;99.90
33837;DHT22;20140;49.356;8.812;2023-03-01T08:53:11;1.50;99.90
33837;DHT22;20140;49.356;8.812;2023-03-01T08:55:36;1.60;99.90
33837;DHT22;20140;49.356;8.812;2023-03-01T08:58:02;1.60;99.90
33837;DHT22;20140;49.356;8.812;2023-03-01T09:00:27;1.80;99.90
33837;DHT22;20140;49.356;8.812;2023-03-01T09:02:53;1.80;99.90
33837;DHT22;20140;49.356;8.812;2023-03-01T09:05:18;1.80;99.90
33837;DHT22;20140;49.356;8.812;2023-03-01T09:07:44;1.90;99.90
33837;DHT22;20140;49.356;8.812;2023-03-01T09:10:10;2.00;99.90
33837;DHT22;20140;49.356;8.812;2023-03-01T09:12:35;2.10;99.90
33837;DHT22;20140;49.356;8.812;2023-03-01T09:15:01;2.20;99.90
33837;DHT22;20140;49.356;8.812;2023-03-01T09:17:26;2.20;99.90
33837;DHT22;20140;49.356;8.812;2023-03-01T09:19:52;2.20;99.90
33837;DHT22;20140;49.356;8.812;2023-03-01T09:22:17;2.20;99.90
33837;DHT22;20140;49.356;8.812;2023-03-01T09:24:43;2.30;99.90
33837;DHT22;20140;49.356;8.812;2023-03-01T09:27:09;2.30;99.90
33837;DHT22;20140;49.356;8.812;2023-03-01T09:29:36;2.40;99.90
33837;DHT22;20140;49.356;8.812;2023-03-01T09:32:02;2.50;99.90
33837;DHT22;20140;49.356;8.812;2023-03-01T09:34:27;2.50;99.90
33837;DHT22;20140;49.356;8.812;2023-03-01T09:36:53;2.60;99.90
33837;DHT22;20140;49.356;8.812;2023-03-01T09:39:19;2.70;99.90
33837;DHT22;20140;49.356;8.812;2023-03-01T09:41:57;2.80;99.90
33837;DHT22;20140;49.356;8.812;2023-03-01T09:47:22;3.10;99.90
33837;DHT22;20140;49.356;8.812;2023-03-01T09:52:47;3.30;99.90
33837;DHT22;20140;49.356;8.812;2023-03-01T09:55:17;3.30;99.90
33837;DHT22;20140;49.356;8.812;2023-03-01T09:57:50;3.30;99.90
33837;DHT22;20140;49.356;8.812;2023-03-01T10:05:44;3.50;99.90
33837;DHT22;20140;49.356;8.812;2023-03-01T10:09:27;3.60;99.90
33837;DHT22;20140;49.356;8.812;2023-03-01T10:11:28;3.80;99.90
33837;DHT22;20140;49.356;8.812;2023-03-01T10:14:04;3.80;99.90
33837;DHT22;20140;49.356;8.812;2023-03-01T10:19:03;4.00;99.90
33837;DHT22;20140;49.356;8.812;2023-03-01T10:21:30;4.10;99.90
33837;DHT22;20140;49.356;8.812;2023-03-01T10:24:07;4.30;99.90
33837;DHT22;20140;49.356;8.812;2023-03-01T10:26:39;4.40;99.90
33837;DHT22;20140;49.356;8.812;2023-03-01T10:29:11;4.40;99.90
33837;DHT22;20140;49.356;8.812;2023-03-01T10:31:48;4.30;99.90
33837;DHT22;20140;49.356;8.812;2023-03-01T10:34:16;4.40;99.90
33837;DHT22;20140;49.356;8.812;2023-03-01T10:36:43;4.60;99.90
33837;DHT22;20140;49.356;8.812;2023-03-01T10:39:17;4.70;99.90
33837;DHT22;20140;49.356;8.812;2023-03-01T10:42:19;4.90;99.90
33837;DHT22;20140;49.356;8.812;2023-03-01T10:44:49;4.90;99.90
33837;DHT22;20140;49.356;8.812;2023-03-01T10:50:00;5.10;99.90
33837;DHT22;20140;49.356;8.812;2023-03-01T10:52:37;5.40;99.90
33837;DHT22;20140;49.356;8.812;2023-03-01T10:58:20;5.50;99.90
33837;DHT22;20140;49.356;8.812;2023-03-01T11:00:48;5.50;99.90
33837;DHT22;20140;49.356;8.812;2023-03-01T11:03:18;5.60;99.90
33837;DHT22;20140;49.356;8.812;2023-03-01T11:08:44;5.70;99.90
33837;DHT22;20140;49.356;8.812;2023-03-01T11:11:14;5.90;99.90
33837;DHT22;20140;49.356;8.812;2023-03-01T11:13:54;6.00;99.90
33837;DHT22;20140;49.356;8.812;2023-03-01T11:16:26;6.10;99.90
33837;DHT22;20140;49.356;8.812;2023-03-01T11:19:01;6.10;99.90
33837;DHT22;20140;49.356;8.812;2023-03-01T11:21:31;6.20;99.90
33837;DHT22;20140;49.356;8.812;2023-03-01T11:24:00;6.40;99.90
33837;DHT22;20140;49.356;8.812;2023-03-01T11:26:27;6.40;99.90
33837;DHT22;20140;49.356;8.812;2023-03-01T11:28:55;6.70;99.90
33837;DHT22;20140;49.356;8.812;2023-03-01T11:31:24;6.90;99.90
33837;DHT22;20140;49.356;8.812;2023-03-01T11:33:54;7.00;99.90
33837;DHT22;20140;49.356;8.812;2023-03-01T11:36:35;7.10;99.90
33837;DHT22;20140;49.356;8.812;2023-03-01T11:39:12;7.30;99.90
33837;DHT22;20140;49.356;8.812;2023-03-01T11:41:42;7.30;99.90
33837;DHT22;20140;49.356;8.812;2023-03-01T11:44:18;7.50;99.90
33837;DHT22;20140;49.356;8.812;2023-03-01T11:49:50;7.60;99.70
33837;DHT22;20140;49.356;8.812;2023-03-01T11:52:35;7.80;99.80
33837;DHT22;20140;49.356;8.812;2023-03-01T11:55:17;7.80;99.90
33837;DHT22;20140;49.356;8.812;2023-03-01T11:58:10;7.90;99.10
33837;DHT22;20140;49.356;8.812;2023-03-01T12:00:59;7.30;99.30
33837;DHT22;20140;49.356;8.812;2023-03-01T12:03:47;7.10;98.90
33837;DHT22;20140;49.356;8.812;2023-03-01T12:20:32;7.80;98.00
33837;DHT22;20140;49.356;8.812;2023-03-01T12:23:27;8.00;97.50
33837;DHT22;20140;49.356;8.812;2023-03-01T12:28:35;7.80;98.10
33837;DHT22;20140;49.356;8.812;2023-03-01T12:31:35;8.00;97.50
33837;DHT22;20140;49.356;8.812;2023-03-01T12:34:42;7.80;97.30
33837;DHT22;20140;49.356;8.812;2023-03-01T12:37:25;8.30;97.10
33837;DHT22;20140;49.356;8.812;2023-03-01T12:42:47;9.00;95.20
33837;DHT22;20140;49.356;8.812;2023-03-01T12:50:50;9.00;94.30
33837;DHT22;20140;49.356;8.812;2023-03-01T12:53:29;10.20;91.90
33837;DHT22;20140;49.356;8.812;2023-03-01T12:56:00;9.30;93.90
33837;DHT22;20140;49.356;8.812;2023-03-01T12:58:54;10.30;93.80
33837;DHT22;20140;49.356;8.812;2023-03-01T13:04:25;10.50;90.90
33837;DHT22;20140;49.356;8.812;2023-03-01T13:07:30;11.30;90.70
33837;DHT22;20140;49.356;8.812;2023-03-01T13:17:54;11.30;86.80
33837;DHT22;20140;49.356;8.812;2023-03-01T13:26:06;11.10;81.30
33837;DHT22;20140;49.356;8.812;2023-03-01T13:28:40;11.40;82.60
33837;DHT22;20140;49.356;8.812;2023-03-01T13:31:11;10.60;84.70
33837;DHT22;20140;49.356;8.812;2023-03-01T13:36:08;11.90;78.80
33837;DHT22;20140;49.356;8.812;2023-03-01T13:49:50;12.40;73.50
33837;DHT22;20140;49.356;8.812;2023-03-01T13:52:40;13.20;77.80
33837;DHT22;20140;49.356;8.812;2023-03-01T13:55:45;13.70;74.30
33837;DHT22;20140;49.356;8.812;2023-03-01T13:58:27;14.60;72.70
33837;DHT22;20140;49.356;8.812;2023-03-01T14:03:25;14.00;68.60
33837;DHT22;20140;49.356;8.812;2023-03-01T14:08:29;14.00;67.90
33837;DHT22;20140;49.356;8.812;2023-03-01T14:11:45;10.40;76.20
33837;DHT22;20140;49.356;8.812;2023-03-01T14:17:18;12.80;75.10
33837;DHT22;20140;49.356;8.812;2023-03-01T14:19:53;13.80;70.40
33837;DHT22;20140;49.356;8.812;2023-03-01T14:22:25;13.80;70.10
33837;DHT22;20140;49.356;8.812;2023-03-01T14:25:01;14.10;69.70
33837;DHT22;20140;49.356;8.812;2023-03-01T14:27:32;13.60;69.80
33837;DHT22;20140;49.356;8.812;2023-03-01T14:30:15;14.10;69.40
33837;DHT22;20140;49.356;8.812;2023-03-01T14:32:43;14.10;69.20
33837;DHT22;20140;49.356;8.812;2023-03-01T14:35:36;13.70;69.30
33837;DHT22;20140;49.356;8.812;2023-03-01T14:38:02;13.60;69.80
33837;DHT22;20140;49.356;8.812;2023-03-01T14:40:34;13.90;68.80
33837;DHT22;20140;49.356;8.812;2023-03-01T14:43:02;12.10;70.20
33837;DHT22;20140;49.356;8.812;2023-03-01T14:45:33;12.40;71.30
33837;DHT22;20140;49.356;8.812;2023-03-01T14:48:00;12.00;72.30
33837;DHT22;20140;49.356;8.812;2023-03-01T14:50:29;12.50;71.70
33837;DHT22;20140;49.356;8.812;2023-03-01T14:52:59;12.20;71.70
33837;DHT22;20140;49.356;8.812;2023-03-01T14:57:53;14.20;69.50
33837;DHT22;20140;49.356;8.812;2023-03-01T15:00:23;14.70;68.20
33837;DHT22;20140;49.356;8.812;2023-03-01T15:02:51;14.20;68.10
33837;DHT22;20140;49.356;8.812;2023-03-01T15:05:24;14.60;68.10
33837;DHT22;20140;49.356;8.812;2023-03-01T15:07:51;15.00;66.50
33837;DHT22;20140;49.356;8.812;2023-03-01T15:10:29;14.90;66.20
33837;DHT22;20140;49.356;8.812;2023-03-01T15:12:58;15.20;63.80
33837;DHT22;20140;49.356;8.812;2023-03-01T15:15:45;15.30;63.70
33837;DHT22;20140;49.356;8.812;2023-03-01T15:18:19;14.50;66.70
33837;DHT22;20140;49.356;8.812;2023-03-01T15:20:47;14.10;68.70
33837;DHT22;20140;49.356;8.812;2023-03-01T15:25:44;14.90;65.40
33837;DHT22;20140;49.356;8.812;2023-03-01T15:28:19;14.90;64.70
33837;DHT22;20140;49.356;8.812;2023-03-01T15:30:46;15.20;64.20
33837;DHT22;20140;49.356;8.812;2023-03-01T15:35:54;14.10;65.80
33837;DHT22;20140;49.356;8.812;2023-03-01T15:38:35;14.20;64.50
33837;DHT22;20140;49.356;8.812;2023-03-01T15:41:21;14.20;65.60
33837;DHT22;20140;49.356;8.812;2023-03-01T15:43:47;13.90;66.00
33837;DHT22;20140;49.356;8.812;2023-03-01T15:46:31;13.80;65.40
33837;DHT22;20140;49.356;8.812;2023-03-01T15:49:02;12.70;66.40
33837;DHT22;20140;49.356;8.812;2023-03-01T15:51:37;13.30;67.70
33837;DHT22;20140;49.356;8.812;2023-03-01T15:54:06;13.50;66.50
33837;DHT22;20140;49.356;8.812;2023-03-01T15:56:32;13.30;66.40
33837;DHT22;20140;49.356;8.812;2023-03-01T15:59:00;13.70;67.20
33837;DHT22;20140;49.356;8.812;2023-03-01T16:01:27;13.70;66.60
33837;DHT22;20140;49.356;8.812;2023-03-01T16:03:53;14.00;67.60
33837;DHT22;20140;49.356;8.812;2023-03-01T16:06:19;13.60;65.90
33837;DHT22;20140;49.356;8.812;2023-03-01T16:08:45;13.20;66.70
33837;DHT22;20140;49.356;8.812;2023-03-01T16:11:16;13.50;67.40
33837;DHT22;20140;49.356;8.812;2023-03-01T16:13:41;13.80;66.90
33837;DHT22;20140;49.356;8.812;2023-03-01T16:16:09;13.50;68.30
33837;DHT22;20140;49.356;8.812;2023-03-01T16:18:38;13.10;68.10
33837;DHT22;20140;49.356;8.812;2023-03-01T16:21:04;12.70;68.00
33837;DHT22;20140;49.356;8.812;2023-03-01T16:23:30;12.30;70.40
33837;DHT22;20140;49.356;8.812;2023-03-01T16:25:59;12.20;70.00
33837;DHT22;20140;49.356;8.812;2023-03-01T16:28:24;12.10;70.80
33837;DHT22;20140;49.356;8.812;2023-03-01T16:30:52;11.50;70.60
33837;DHT22;20140;49.356;8.812;2023-03-01T16:33:17;11.80;72.10
33837;DHT22;20140;49.356;8.812;2023-03-01T16:35:43;11.60;71.90
33837;DHT22;20140;49.356;8.812;2023-03-01T16:38:09;11.40;73.00
33837;DHT22;20140;49.356;8.812;2023-03-01T16:40:35;11.30;74.50
33837;DHT22;20140;49.356;8.812;2023-03-01T16:43:01;11.30;74.10
33837;DHT22;20140;49.356;8.812;2023-03-01T16:45:28;11.20;74.80
33837;DHT22;20140;49.356;8.812;2023-03-01T16:47:57;11.10;75.60
33837;DHT22;20140;49.356;8.812;2023-03-01T16:50:23;10.70;76.60
33837;DHT22;20140;49.356;8.812;2023-03-01T16:52:49;10.30;77.90
33837;DHT22;20140;49.356;8.812;2023-03-01T16:55:15;10.00;79.10
33837;DHT22;20140;49.356;8.812;2023-03-01T16:57:40;9.90;80.10
33837;DHT22;20140;49.356;8.812;2023-03-01T17:00:07;9.50;79.80
33837;DHT22;20140;49.356;8.812;2023-03-01T17:02:35;9.40;81.10
33837;DHT22;20140;49.356;8.812;2023-03-01T17:05:01;9.10;83.50
33837;DHT22;20140;49.356;8.812;2023-03-01T17:07:27;8.80;85.20
33837;DHT22;20140;49.356;8.812;2023-03-01T17:09:52;8.60;85.00
33837;DHT22;20140;49.356;8.812;2023-03-01T17:12:18;8.40;87.30
33837;DHT22;20140;49.356;8.812;2023-03-01T17:14:43;8.20;88.10
33837;DHT22;20140;49.356;8.812;2023-03-01T17:17:10;8.10;89.10
33837;DHT22;20140;49.356;8.812;2023-03-01T17:19:36;8.00;89.90
33837;DHT22;20140;49.356;8.812;2023-03-01T17:22:06;7.80;90.50
33837;DHT22;20140;49.356;8.812;2023-03-01T17:24:33;7.80;90.60
33837;DHT22;20140;49.356;8.812;2023-03-01T17:26:59;7.80;90.80
33837;DHT22;20140;49.356;8.812;2023-03-01T17:29:25;7.60;90.90
33837;DHT22;20140;49.356;8.812;2023-03-01T17:31:50;7.60;91.40
33837;DHT22;20140;49.356;8.812;2023-03-01T17:34:16;7.40;92.10
33837;DHT22;20140;49.356;8.812;2023-03-01T17:36:42;7.30;92.40